sensor_id;sensor_type;location;lat;lon;timestamp;P1;durP1;ratioP1;P2;durP2;ratioP2
43883;SDS011;29544;52.018;5.810;2022-08-19T00:00:19;3.45;;;2.60;;
43883;SDS011;29544;52.018;5.810;2022-08-19T00:02:45;4.10;;;2.80;;
43883;SDS011;29544;52.018;5.810;2022-08-19T00:05:11;2.60;;;2.20;;
43883;SDS011;29544;52.018;5.810;2022-08-19T00:07:39;3.00;;;2.45;;
43883;SDS011;29544;52.018;5.810;2022-08-19T00:10:08;2.88;;;2.20;;
43883;SDS011;29544;52.018;5.810;2022-08-19T00:12:34;2.63;;;2.00;;
43883;SDS011;29544;52.018;5.810;2022-08-19T00:15:02;3.25;;;2.28;;
43883;SDS011;29544;52.018;5.810;2022-08-19T00:17:36;2.53;;;2.13;;
43883;SDS011;29544;52.018;5.810;2022-08-19T00:20:03;2.90;;;2.42;;
43883;SDS011;29544;52.018;5.810;2022-08-19T00:22:29;2.63;;;2.35;;
43883;SDS011;29544;52.018;5.810;2022-08-19T00:24:54;3.67;;;2.40;;
43883;SDS011;29544;52.018;5.810;2022-08-19T00:27:20;4.87;;;2.40;;
43883;SDS011;29544;52.018;5.810;2022-08-19T00:29:45;2.38;;;2.15;;
43883;SDS011;29544;52.018;5.810;2022-08-19T00:32:11;2.55;;;2.20;;
43883;SDS011;29544;52.018;5.810;2022-08-19T00:34:37;3.13;;;2.40;;
43883;SDS011;29544;52.018;5.810;2022-08-19T00:37:03;3.97;;;2.60;;
43883;SDS011;29544;52.018;5.810;2022-08-19T00:39:28;4.35;;;2.30;;
43883;SDS011;29544;52.018;5.810;2022-08-19T00:41:54;3.60;;;2.33;;
43883;SDS011;29544;52.018;5.810;2022-08-19T00:44:23;3.10;;;2.00;;
43883;SDS011;29544;52.018;5.810;2022-08-19T00:46:51;3.72;;;2.22;;
43883;SDS011;29544;52.018;5.810;2022-08-19T00:51:47;2.42;;;2.17;;
43883;SDS011;29544;52.018;5.810;2022-08-19T00:54:15;3.20;;;2.30;;
43883;SDS011;29544;52.018;5.810;2022-08-19T00:59:09;3.63;;;2.28;;
43883;SDS011;29544;52.018;5.810;2022-08-19T01:01:39;2.42;;;2.08;;
43883;SDS011;29544;52.018;5.810;2022-08-19T01:04:07;4.68;;;2.30;;
43883;SDS011;29544;52.018;5.810;2022-08-19T01:06:33;3.83;;;2.15;;
43883;SDS011;29544;52.018;5.810;2022-08-19T01:09:00;2.92;;;2.00;;
43883;SDS011;29544;52.018;5.810;2022-08-19T01:11:29;3.43;;;2.27;;
43883;SDS011;29544;52.018;5.810;2022-08-19T01:13:56;2.97;;;2.60;;
43883;SDS011;29544;52.018;5.810;2022-08-19T01:16:24;2.78;;;2.20;;
43883;SDS011;29544;52.018;5.810;2022-08-19T01:18:51;3.25;;;2.25;;
43883;SDS011;29544;52.018;5.810;2022-08-19T01:23:57;3.08;;;2.35;;
43883;SDS011;29544;52.018;5.810;2022-08-19T01:26:23;2.88;;;2.30;;
43883;SDS011;29544;52.018;5.810;2022-08-19T01:28:51;2.95;;;2.17;;
43883;SDS011;29544;52.018;5.810;2022-08-19T01:31:24;2.63;;;2.10;;
43883;SDS011;29544;52.018;5.810;2022-08-19T01:33:54;2.60;;;2.03;;
43883;SDS011;29544;52.018;5.810;2022-08-19T01:36:23;3.33;;;2.00;;
43883;SDS011;29544;52.018;5.810;2022-08-19T01:38:55;3.50;;;2.33;;
43883;SDS011;29544;52.018;5.810;2022-08-19T01:41:21;2.42;;;2.20;;
43883;SDS011;29544;52.018;5.810;2022-08-19T01:43:48;2.78;;;2.03;;
43883;SDS011;29544;52.018;5.810;2022-08-19T01:46:15;4.78;;;2.22;;
43883;SDS011;29544;52.018;5.810;2022-08-19T01:48:41;7.78;;;3.03;;
43883;SDS011;29544;52.018;5.810;2022-08-19T01:51:08;2.53;;;2.33;;
43883;SDS011;29544;52.018;5.810;2022-08-19T01:53:35;3.67;;;2.25;;
43883;SDS011;29544;52.018;5.810;2022-08-19T01:58:28;2.63;;;2.08;;
43883;SDS011;29544;52.018;5.810;2022-08-19T02:01:06;3.00;;;2.30;;
43883;SDS011;29544;52.018;5.810;2022-08-19T02:03:32;3.50;;;2.30;;
43883;SDS011;29544;52.018;5.810;2022-08-19T02:06:00;2.50;;;2.05;;
43883;SDS011;29544;52.018;5.810;2022-08-19T02:08:28;4.03;;;2.00;;
43883;SDS011;29544;52.018;5.810;2022-08-19T02:10:55;4.20;;;2.10;;
43883;SDS011;29544;52.018;5.810;2022-08-19T02:15:47;2.35;;;2.15;;
43883;SDS011;29544;52.018;5.810;2022-08-19T02:18:13;3.13;;;2.42;;
43883;SDS011;29544;52.018;5.810;2022-08-19T02:20:40;3.28;;;2.00;;
43883;SDS011;29544;52.018;5.810;2022-08-19T02:23:08;4.15;;;2.30;;
43883;SDS011;29544;52.018;5.810;2022-08-19T02:25:35;2.58;;;2.35;;
43883;SDS011;29544;52.018;5.810;2022-08-19T02:28:01;4.25;;;2.58;;
43883;SDS011;29544;52.018;5.810;2022-08-19T02:30:26;5.38;;;2.50;;
43883;SDS011;29544;52.018;5.810;2022-08-19T02:32:52;3.80;;;2.47;;
43883;SDS011;29544;52.018;5.810;2022-08-19T02:35:18;3.95;;;2.42;;
43883;SDS011;29544;52.018;5.810;2022-08-19T02:37:44;2.65;;;2.13;;
43883;SDS011;29544;52.018;5.810;2022-08-19T02:40:29;3.33;;;2.33;;
43883;SDS011;29544;52.018;5.810;2022-08-19T02:42:59;2.55;;;2.00;;
43883;SDS011;29544;52.018;5.810;2022-08-19T02:45:25;2.25;;;1.95;;
43883;SDS011;29544;52.018;5.810;2022-08-19T02:47:51;4.43;;;2.20;;
43883;SDS011;29544;52.018;5.810;2022-08-19T02:50:17;3.58;;;2.50;;
43883;SDS011;29544;52.018;5.810;2022-08-19T02:52:43;3.15;;;2.20;;
43883;SDS011;29544;52.018;5.810;2022-08-19T02:57:35;2.50;;;2.30;;
43883;SDS011;29544;52.018;5.810;2022-08-19T03:00:02;3.97;;;2.33;;
43883;SDS011;29544;52.018;5.810;2022-08-19T03:02:30;2.40;;;2.00;;
43883;SDS011;29544;52.018;5.810;2022-08-19T03:04:55;3.53;;;2.30;;
43883;SDS011;29544;52.018;5.810;2022-08-19T03:07:21;2.43;;;2.03;;
43883;SDS011;29544;52.018;5.810;2022-08-19T03:09:47;4.13;;;2.33;;
43883;SDS011;29544;52.018;5.810;2022-08-19T03:12:12;2.33;;;2.10;;
43883;SDS011;29544;52.018;5.810;2022-08-19T03:14:38;2.53;;;2.33;;
43883;SDS011;29544;52.018;5.810;2022-08-19T03:17:04;3.40;;;1.95;;
43883;SDS011;29544;52.018;5.810;2022-08-19T03:19:30;3.65;;;2.25;;
43883;SDS011;29544;52.018;5.810;2022-08-19T03:24:22;2.83;;;2.10;;
43883;SDS011;29544;52.018;5.810;2022-08-19T03:26:49;2.63;;;2.00;;
43883;SDS011;29544;52.018;5.810;2022-08-19T03:29:17;5.03;;;2.67;;
43883;SDS011;29544;52.018;5.810;2022-08-19T03:31:44;3.65;;;2.35;;
43883;SDS011;29544;52.018;5.810;2022-08-19T03:34:11;4.35;;;2.05;;
43883;SDS011;29544;52.018;5.810;2022-08-19T03:36:43;5.13;;;2.70;;
43883;SDS011;29544;52.018;5.810;2022-08-19T03:39:09;3.92;;;2.50;;
43883;SDS011;29544;52.018;5.810;2022-08-19T03:44:02;3.20;;;2.45;;
43883;SDS011;29544;52.018;5.810;2022-08-19T03:46:30;2.72;;;2.15;;
43883;SDS011;29544;52.018;5.810;2022-08-19T03:48:58;2.92;;;2.35;;
43883;SDS011;29544;52.018;5.810;2022-08-19T03:51:29;3.72;;;2.38;;
43883;SDS011;29544;52.018;5.810;2022-08-19T03:53:58;2.67;;;2.13;;
43883;SDS011;29544;52.018;5.810;2022-08-19T03:56:25;4.35;;;2.20;;
43883;SDS011;29544;52.018;5.810;2022-08-19T03:58:53;4.65;;;2.55;;
43883;SDS011;29544;52.018;5.810;2022-08-19T04:01:20;3.03;;;2.50;;
43883;SDS011;29544;52.018;5.810;2022-08-19T04:03:47;6.32;;;2.92;;
43883;SDS011;29544;52.018;5.810;2022-08-19T04:08:40;3.73;;;2.33;;
43883;SDS011;29544;52.018;5.810;2022-08-19T04:11:07;4.53;;;2.45;;
43883;SDS011;29544;52.018;5.810;2022-08-19T04:13:34;3.28;;;2.20;;
43883;SDS011;29544;52.018;5.810;2022-08-19T04:16:00;4.38;;;2.33;;
43883;SDS011;29544;52.018;5.810;2022-08-19T04:18:25;4.57;;;2.00;;
43883;SDS011;29544;52.018;5.810;2022-08-19T04:20:51;3.83;;;2.20;;
43883;SDS011;29544;52.018;5.810;2022-08-19T04:23:17;2.83;;;2.50;;
43883;SDS011;29544;52.018;5.810;2022-08-19T04:25:43;2.97;;;2.30;;
43883;SDS011;29544;52.018;5.810;2022-08-19T04:28:10;3.10;;;2.33;;
43883;SDS011;29544;52.018;5.810;2022-08-19T04:30:42;5.05;;;2.28;;
43883;SDS011;29544;52.018;5.810;2022-08-19T04:33:09;3.40;;;2.22;;
43883;SDS011;29544;52.018;5.810;2022-08-19T04:35:37;4.07;;;2.10;;
43883;SDS011;29544;52.018;5.810;2022-08-19T04:38:04;4.60;;;2.63;;
43883;SDS011;29544;52.018;5.810;2022-08-19T04:40:30;2.78;;;2.08;;
43883;SDS011;29544;52.018;5.810;2022-08-19T04:43:29;3.33;;;2.30;;
43883;SDS011;29544;52.018;5.810;2022-08-19T04:45:55;4.22;;;2.35;;
43883;SDS011;29544;52.018;5.810;2022-08-19T04:48:21;4.20;;;2.30;;
43883;SDS011;29544;52.018;5.810;2022-08-19T04:50:54;4.10;;;2.42;;
43883;SDS011;29544;52.018;5.810;2022-08-19T04:53:32;3.22;;;2.40;;
43883;SDS011;29544;52.018;5.810;2022-08-19T04:56:03;3.97;;;2.42;;
43883;SDS011;29544;52.018;5.810;2022-08-19T04:58:33;2.72;;;2.30;;
43883;SDS011;29544;52.018;5.810;2022-08-19T05:01:00;2.60;;;2.38;;
43883;SDS011;29544;52.018;5.810;2022-08-19T05:03:26;3.60;;;2.30;;
43883;SDS011;29544;52.018;5.810;2022-08-19T05:05:51;3.33;;;2.88;;
43883;SDS011;29544;52.018;5.810;2022-08-19T05:08:18;4.82;;;2.63;;
43883;SDS011;29544;52.018;5.810;2022-08-19T05:10:47;3.63;;;2.35;;
43883;SDS011;29544;52.018;5.810;2022-08-19T05:13:14;3.38;;;2.33;;
43883;SDS011;29544;52.018;5.810;2022-08-19T05:15:41;3.40;;;2.40;;
43883;SDS011;29544;52.018;5.810;2022-08-19T05:18:06;4.22;;;2.90;;
43883;SDS011;29544;52.018;5.810;2022-08-19T05:20:50;5.13;;;2.95;;
43883;SDS011;29544;52.018;5.810;2022-08-19T05:23:34;4.65;;;2.63;;
43883;SDS011;29544;52.018;5.810;2022-08-19T05:26:00;7.33;;;3.00;;
43883;SDS011;29544;52.018;5.810;2022-08-19T05:28:26;5.73;;;3.33;;
43883;SDS011;29544;52.018;5.810;2022-08-19T05:33:20;3.72;;;3.10;;
43883;SDS011;29544;52.018;5.810;2022-08-19T05:35:46;3.90;;;3.20;;
43883;SDS011;29544;52.018;5.810;2022-08-19T05:38:14;9.85;;;4.03;;
43883;SDS011;29544;52.018;5.810;2022-08-19T05:40:41;4.68;;;2.97;;
43883;SDS011;29544;52.018;5.810;2022-08-19T05:43:10;5.07;;;3.85;;
43883;SDS011;29544;52.018;5.810;2022-08-19T05:45:39;6.57;;;3.45;;
43883;SDS011;29544;52.018;5.810;2022-08-19T05:48:07;5.78;;;3.50;;
43883;SDS011;29544;52.018;5.810;2022-08-19T05:50:36;6.97;;;4.28;;
43883;SDS011;29544;52.018;5.810;2022-08-19T05:53:03;5.70;;;3.40;;
43883;SDS011;29544;52.018;5.810;2022-08-19T05:55:29;5.70;;;3.88;;
43883;SDS011;29544;52.018;5.810;2022-08-19T05:57:54;5.47;;;3.83;;
43883;SDS011;29544;52.018;5.810;2022-08-19T06:00:20;5.20;;;4.20;;
43883;SDS011;29544;52.018;5.810;2022-08-19T06:02:45;5.60;;;4.03;;
43883;SDS011;29544;52.018;5.810;2022-08-19T06:05:11;5.10;;;4.07;;
43883;SDS011;29544;52.018;5.810;2022-08-19T06:07:37;5.97;;;3.90;;
43883;SDS011;29544;52.018;5.810;2022-08-19T06:10:04;5.95;;;4.32;;
43883;SDS011;29544;52.018;5.810;2022-08-19T06:12:32;5.28;;;3.78;;
43883;SDS011;29544;52.018;5.810;2022-08-19T06:14:59;6.22;;;4.05;;
43883;SDS011;29544;52.018;5.810;2022-08-19T06:17:26;6.28;;;3.72;;
43883;SDS011;29544;52.018;5.810;2022-08-19T06:19:54;6.15;;;4.28;;
43883;SDS011;29544;52.018;5.810;2022-08-19T06:22:20;6.30;;;3.72;;
43883;SDS011;29544;52.018;5.810;2022-08-19T06:24:46;7.63;;;3.87;;
43883;SDS011;29544;52.018;5.810;2022-08-19T06:27:12;4.90;;;3.83;;
43883;SDS011;29544;52.018;5.810;2022-08-19T06:29:37;6.17;;;4.37;;
43883;SDS011;29544;52.018;5.810;2022-08-19T06:32:03;5.63;;;4.00;;
43883;SDS011;29544;52.018;5.810;2022-08-19T06:34:30;7.22;;;3.83;;
43883;SDS011;29544;52.018;5.810;2022-08-19T06:36:58;7.00;;;3.85;;
43883;SDS011;29544;52.018;5.810;2022-08-19T06:39:27;6.20;;;3.75;;
43883;SDS011;29544;52.018;5.810;2022-08-19T06:41:56;6.72;;;4.05;;
43883;SDS011;29544;52.018;5.810;2022-08-19T06:44:24;6.72;;;4.18;;
43883;SDS011;29544;52.018;5.810;2022-08-19T06:46:53;6.00;;;4.22;;
43883;SDS011;29544;52.018;5.810;2022-08-19T06:49:20;6.72;;;3.85;;
43883;SDS011;29544;52.018;5.810;2022-08-19T06:51:48;5.57;;;3.72;;
43883;SDS011;29544;52.018;5.810;2022-08-19T06:54:17;6.32;;;4.10;;
43883;SDS011;29544;52.018;5.810;2022-08-19T06:56:43;8.32;;;4.90;;
43883;SDS011;29544;52.018;5.810;2022-08-19T07:02:16;5.78;;;4.72;;
43883;SDS011;29544;52.018;5.810;2022-08-19T07:07:09;6.78;;;4.85;;
43883;SDS011;29544;52.018;5.810;2022-08-19T07:09:38;6.47;;;5.28;;
43883;SDS011;29544;52.018;5.810;2022-08-19T07:12:05;8.73;;;6.30;;
43883;SDS011;29544;52.018;5.810;2022-08-19T07:14:33;9.52;;;6.53;;
43883;SDS011;29544;52.018;5.810;2022-08-19T07:17:03;11.82;;;7.78;;
43883;SDS011;29544;52.018;5.810;2022-08-19T07:19:30;13.30;;;8.50;;
43883;SDS011;29544;52.018;5.810;2022-08-19T07:21:56;12.80;;;10.25;;
43883;SDS011;29544;52.018;5.810;2022-08-19T07:24:24;12.02;;;9.45;;
43883;SDS011;29544;52.018;5.810;2022-08-19T07:26:53;14.57;;;10.00;;
43883;SDS011;29544;52.018;5.810;2022-08-19T07:29:22;15.32;;;11.48;;
43883;SDS011;29544;52.018;5.810;2022-08-19T07:31:51;16.08;;;12.20;;
43883;SDS011;29544;52.018;5.810;2022-08-19T07:34:17;17.33;;;12.40;;
43883;SDS011;29544;52.018;5.810;2022-08-19T07:36:43;16.80;;;12.43;;
43883;SDS011;29544;52.018;5.810;2022-08-19T07:41:37;21.42;;;15.10;;
43883;SDS011;29544;52.018;5.810;2022-08-19T07:44:03;19.10;;;13.60;;
43883;SDS011;29544;52.018;5.810;2022-08-19T07:46:32;20.08;;;14.85;;
43883;SDS011;29544;52.018;5.810;2022-08-19T07:49:01;19.55;;;15.27;;
43883;SDS011;29544;52.018;5.810;2022-08-19T07:51:28;20.10;;;15.32;;
43883;SDS011;29544;52.018;5.810;2022-08-19T07:53:53;20.95;;;15.60;;
43883;SDS011;29544;52.018;5.810;2022-08-19T07:56:19;20.20;;;16.30;;
43883;SDS011;29544;52.018;5.810;2022-08-19T07:58:46;18.73;;;15.73;;
43883;SDS011;29544;52.018;5.810;2022-08-19T08:01:15;20.27;;;17.13;;
43883;SDS011;29544;52.018;5.810;2022-08-19T08:03:44;22.05;;;17.95;;
43883;SDS011;29544;52.018;5.810;2022-08-19T08:06:29;23.95;;;17.00;;
43883;SDS011;29544;52.018;5.810;2022-08-19T08:09:13;22.23;;;17.60;;
43883;SDS011;29544;52.018;5.810;2022-08-19T08:11:57;20.00;;;16.85;;
43883;SDS011;29544;52.018;5.810;2022-08-19T08:14:30;22.65;;;18.63;;
43883;SDS011;29544;52.018;5.810;2022-08-19T08:16:57;21.88;;;17.55;;
43883;SDS011;29544;52.018;5.810;2022-08-19T08:21:51;22.77;;;16.30;;
43883;SDS011;29544;52.018;5.810;2022-08-19T08:24:21;21.10;;;17.48;;
43883;SDS011;29544;52.018;5.810;2022-08-19T08:26:46;23.10;;;19.23;;
43883;SDS011;29544;52.018;5.810;2022-08-19T08:29:12;23.40;;;18.17;;
43883;SDS011;29544;52.018;5.810;2022-08-19T08:31:40;22.88;;;17.05;;
43883;SDS011;29544;52.018;5.810;2022-08-19T08:34:07;23.67;;;19.83;;
43883;SDS011;29544;52.018;5.810;2022-08-19T08:36:41;20.73;;;17.35;;
43883;SDS011;29544;52.018;5.810;2022-08-19T08:39:10;20.75;;;17.23;;
43883;SDS011;29544;52.018;5.810;2022-08-19T08:41:46;20.08;;;16.45;;
43883;SDS011;29544;52.018;5.810;2022-08-19T08:45:13;18.67;;;16.70;;
43883;SDS011;29544;52.018;5.810;2022-08-19T08:47:40;19.35;;;16.52;;
43883;SDS011;29544;52.018;5.810;2022-08-19T08:50:12;19.13;;;17.02;;
43883;SDS011;29544;52.018;5.810;2022-08-19T08:52:47;21.35;;;17.95;;
43883;SDS011;29544;52.018;5.810;2022-08-19T08:55:18;21.88;;;16.90;;
43883;SDS011;29544;52.018;5.810;2022-08-19T09:02:58;20.15;;;15.95;;
43883;SDS011;29544;52.018;5.810;2022-08-19T09:05:42;21.08;;;17.25;;
43883;SDS011;29544;52.018;5.810;2022-08-19T09:08:49;21.08;;;17.05;;
43883;SDS011;29544;52.018;5.810;2022-08-19T09:11:39;21.33;;;17.83;;
43883;SDS011;29544;52.018;5.810;2022-08-19T09:16:45;24.17;;;17.90;;
43883;SDS011;29544;52.018;5.810;2022-08-19T09:19:10;23.17;;;18.70;;
43883;SDS011;29544;52.018;5.810;2022-08-19T09:21:36;22.80;;;18.60;;
43883;SDS011;29544;52.018;5.810;2022-08-19T09:24:03;31.27;;;17.85;;
43883;SDS011;29544;52.018;5.810;2022-08-19T09:26:30;23.67;;;17.88;;
43883;SDS011;29544;52.018;5.810;2022-08-19T09:28:57;23.00;;;17.52;;
43883;SDS011;29544;52.018;5.810;2022-08-19T09:31:25;21.65;;;16.45;;
43883;SDS011;29544;52.018;5.810;2022-08-19T09:33:52;23.48;;;17.50;;
43883;SDS011;29544;52.018;5.810;2022-08-19T09:36:22;19.95;;;16.70;;
43883;SDS011;29544;52.018;5.810;2022-08-19T09:38:49;22.15;;;15.82;;
43883;SDS011;29544;52.018;5.810;2022-08-19T09:41:16;23.30;;;17.25;;
43883;SDS011;29544;52.018;5.810;2022-08-19T09:43:47;26.45;;;15.48;;
43883;SDS011;29544;52.018;5.810;2022-08-19T09:46:17;21.02;;;15.68;;
43883;SDS011;29544;52.018;5.810;2022-08-19T09:48:44;21.23;;;16.40;;
43883;SDS011;29544;52.018;5.810;2022-08-19T09:51:14;20.20;;;16.77;;
43883;SDS011;29544;52.018;5.810;2022-08-19T09:53:42;30.60;;;21.45;;
43883;SDS011;29544;52.018;5.810;2022-08-19T09:56:09;22.30;;;17.08;;
43883;SDS011;29544;52.018;5.810;2022-08-19T10:01:02;20.75;;;15.35;;
43883;SDS011;29544;52.018;5.810;2022-08-19T10:03:29;21.42;;;16.80;;
43883;SDS011;29544;52.018;5.810;2022-08-19T10:05:57;20.73;;;16.15;;
43883;SDS011;29544;52.018;5.810;2022-08-19T10:08:29;18.42;;;14.70;;
43883;SDS011;29544;52.018;5.810;2022-08-19T10:10:58;21.55;;;15.40;;
43883;SDS011;29544;52.018;5.810;2022-08-19T10:13:27;19.95;;;15.68;;
43883;SDS011;29544;52.018;5.810;2022-08-19T10:16:04;21.98;;;14.70;;
43883;SDS011;29544;52.018;5.810;2022-08-19T10:18:32;22.95;;;17.10;;
43883;SDS011;29544;52.018;5.810;2022-08-19T10:21:08;21.58;;;16.02;;
43883;SDS011;29544;52.018;5.810;2022-08-19T10:23:40;26.85;;;20.13;;
43883;SDS011;29544;52.018;5.810;2022-08-19T10:26:15;21.30;;;16.52;;
43883;SDS011;29544;52.018;5.810;2022-08-19T10:28:51;22.25;;;15.85;;
43883;SDS011;29544;52.018;5.810;2022-08-19T10:31:18;22.25;;;16.17;;
43883;SDS011;29544;52.018;5.810;2022-08-19T10:33:47;25.67;;;16.70;;
43883;SDS011;29544;52.018;5.810;2022-08-19T10:36:16;22.88;;;15.32;;
43883;SDS011;29544;52.018;5.810;2022-08-19T10:38:44;22.17;;;16.23;;
43883;SDS011;29544;52.018;5.810;2022-08-19T10:41:19;23.00;;;15.00;;
43883;SDS011;29544;52.018;5.810;2022-08-19T10:43:49;21.27;;;14.52;;
43883;SDS011;29544;52.018;5.810;2022-08-19T10:46:17;24.98;;;16.65;;
43883;SDS011;29544;52.018;5.810;2022-08-19T10:48:43;23.83;;;15.90;;
43883;SDS011;29544;52.018;5.810;2022-08-19T10:51:10;40.45;;;17.58;;
43883;SDS011;29544;52.018;5.810;2022-08-19T10:53:55;33.17;;;15.15;;
43883;SDS011;29544;52.018;5.810;2022-08-19T10:56:22;21.52;;;14.77;;
43883;SDS011;29544;52.018;5.810;2022-08-19T10:59:06;23.80;;;16.25;;
43883;SDS011;29544;52.018;5.810;2022-08-19T11:01:32;21.90;;;15.57;;
43883;SDS011;29544;52.018;5.810;2022-08-19T11:04:00;20.92;;;14.88;;
43883;SDS011;29544;52.018;5.810;2022-08-19T11:06:26;25.00;;;15.43;;
43883;SDS011;29544;52.018;5.810;2022-08-19T11:08:55;32.95;;;22.10;;
43883;SDS011;29544;52.018;5.810;2022-08-19T11:11:21;23.92;;;16.30;;
43883;SDS011;29544;52.018;5.810;2022-08-19T11:13:47;22.92;;;16.52;;
43883;SDS011;29544;52.018;5.810;2022-08-19T11:16:32;22.83;;;15.52;;
43883;SDS011;29544;52.018;5.810;2022-08-19T11:18:59;28.25;;;17.83;;
43883;SDS011;29544;52.018;5.810;2022-08-19T11:21:32;28.67;;;19.55;;
43883;SDS011;29544;52.018;5.810;2022-08-19T11:24:04;26.17;;;16.90;;
43883;SDS011;29544;52.018;5.810;2022-08-19T11:26:32;30.75;;;19.90;;
43883;SDS011;29544;52.018;5.810;2022-08-19T11:28:59;24.13;;;18.23;;
43883;SDS011;29544;52.018;5.810;2022-08-19T11:31:27;24.45;;;17.40;;
43883;SDS011;29544;52.018;5.810;2022-08-19T11:33:56;25.02;;;18.95;;
43883;SDS011;29544;52.018;5.810;2022-08-19T11:36:24;27.48;;;19.17;;
43883;SDS011;29544;52.018;5.810;2022-08-19T11:41:17;26.50;;;17.13;;
43883;SDS011;29544;52.018;5.810;2022-08-19T11:43:44;21.65;;;14.75;;
43883;SDS011;29544;52.018;5.810;2022-08-19T11:46:10;20.92;;;14.95;;
43883;SDS011;29544;52.018;5.810;2022-08-19T11:48:37;18.70;;;12.95;;
43883;SDS011;29544;52.018;5.810;2022-08-19T11:51:04;18.30;;;13.35;;
43883;SDS011;29544;52.018;5.810;2022-08-19T11:53:32;20.92;;;12.35;;
43883;SDS011;29544;52.018;5.810;2022-08-19T11:55:59;20.77;;;11.60;;
43883;SDS011;29544;52.018;5.810;2022-08-19T11:58:25;23.63;;;13.60;;
43883;SDS011;29544;52.018;5.810;2022-08-19T12:00:50;16.75;;;11.80;;
43883;SDS011;29544;52.018;5.810;2022-08-19T12:03:16;16.13;;;11.10;;
43883;SDS011;29544;52.018;5.810;2022-08-19T12:05:43;17.17;;;10.68;;
43883;SDS011;29544;52.018;5.810;2022-08-19T12:08:09;13.95;;;10.05;;
43883;SDS011;29544;52.018;5.810;2022-08-19T12:10:36;16.65;;;12.00;;
43883;SDS011;29544;52.018;5.810;2022-08-19T12:13:02;18.67;;;12.73;;
43883;SDS011;29544;52.018;5.810;2022-08-19T12:15:27;22.15;;;14.52;;
43883;SDS011;29544;52.018;5.810;2022-08-19T12:17:54;17.90;;;12.80;;
43883;SDS011;29544;52.018;5.810;2022-08-19T12:20:21;18.83;;;12.70;;
43883;SDS011;29544;52.018;5.810;2022-08-19T12:22:48;17.38;;;12.60;;
43883;SDS011;29544;52.018;5.810;2022-08-19T12:25:13;14.50;;;10.55;;
43883;SDS011;29544;52.018;5.810;2022-08-19T12:27:39;18.45;;;12.05;;
43883;SDS011;29544;52.018;5.810;2022-08-19T12:30:05;17.08;;;13.18;;
43883;SDS011;29544;52.018;5.810;2022-08-19T12:32:33;17.92;;;13.35;;
43883;SDS011;29544;52.018;5.810;2022-08-19T12:34:59;22.10;;;13.70;;
43883;SDS011;29544;52.018;5.810;2022-08-19T12:37:24;17.70;;;12.23;;
43883;SDS011;29544;52.018;5.810;2022-08-19T12:39:50;15.80;;;12.60;;
43883;SDS011;29544;52.018;5.810;2022-08-19T12:42:16;17.17;;;13.32;;
43883;SDS011;29544;52.018;5.810;2022-08-19T12:44:43;18.15;;;13.00;;
43883;SDS011;29544;52.018;5.810;2022-08-19T12:47:10;21.45;;;14.95;;
43883;SDS011;29544;52.018;5.810;2022-08-19T12:49:38;16.52;;;11.48;;
43883;SDS011;29544;52.018;5.810;2022-08-19T12:52:05;19.52;;;14.13;;
43883;SDS011;29544;52.018;5.810;2022-08-19T12:54:33;19.40;;;13.02;;
43883;SDS011;29544;52.018;5.810;2022-08-19T12:56:59;18.92;;;14.73;;
43883;SDS011;29544;52.018;5.810;2022-08-19T12:59:25;18.05;;;15.70;;
43883;SDS011;29544;52.018;5.810;2022-08-19T13:01:52;18.38;;;14.73;;
43883;SDS011;29544;52.018;5.810;2022-08-19T13:04:18;18.90;;;13.50;;
43883;SDS011;29544;52.018;5.810;2022-08-19T13:06:43;18.55;;;11.18;;
43883;SDS011;29544;52.018;5.810;2022-08-19T13:09:09;17.55;;;11.85;;
43883;SDS011;29544;52.018;5.810;2022-08-19T13:11:36;18.00;;;11.35;;
43883;SDS011;29544;52.018;5.810;2022-08-19T13:14:02;23.75;;;14.23;;
43883;SDS011;29544;52.018;5.810;2022-08-19T13:16:29;25.83;;;14.02;;
43883;SDS011;29544;52.018;5.810;2022-08-19T13:18:55;14.90;;;11.27;;
43883;SDS011;29544;52.018;5.810;2022-08-19T13:23:48;15.57;;;11.43;;
43883;SDS011;29544;52.018;5.810;2022-08-19T13:26:14;15.18;;;9.38;;
43883;SDS011;29544;52.018;5.810;2022-08-19T13:31:26;13.80;;;11.15;;
43883;SDS011;29544;52.018;5.810;2022-08-19T13:34:12;15.00;;;11.57;;
43883;SDS011;29544;52.018;5.810;2022-08-19T13:36:38;15.15;;;10.50;;
43883;SDS011;29544;52.018;5.810;2022-08-19T13:39:05;12.10;;;9.57;;
43883;SDS011;29544;52.018;5.810;2022-08-19T13:41:35;15.43;;;12.57;;
43883;SDS011;29544;52.018;5.810;2022-08-19T13:44:02;19.55;;;11.88;;
43883;SDS011;29544;52.018;5.810;2022-08-19T13:46:28;13.95;;;10.38;;
43883;SDS011;29544;52.018;5.810;2022-08-19T13:48:55;14.38;;;10.68;;
43883;SDS011;29544;52.018;5.810;2022-08-19T13:51:21;15.25;;;10.07;;
43883;SDS011;29544;52.018;5.810;2022-08-19T13:53:47;16.63;;;10.93;;
43883;SDS011;29544;52.018;5.810;2022-08-19T13:56:14;15.02;;;11.13;;
43883;SDS011;29544;52.018;5.810;2022-08-19T13:58:42;19.50;;;11.55;;
43883;SDS011;29544;52.018;5.810;2022-08-19T14:01:08;16.52;;;10.73;;
43883;SDS011;29544;52.018;5.810;2022-08-19T14:03:35;19.00;;;13.23;;
43883;SDS011;29544;52.018;5.810;2022-08-19T14:06:01;14.88;;;11.88;;
43883;SDS011;29544;52.018;5.810;2022-08-19T14:08:27;15.85;;;12.18;;
43883;SDS011;29544;52.018;5.810;2022-08-19T14:10:56;19.83;;;13.77;;
43883;SDS011;29544;52.018;5.810;2022-08-19T14:13:22;16.20;;;11.10;;
43883;SDS011;29544;52.018;5.810;2022-08-19T14:18:15;16.48;;;11.50;;
43883;SDS011;29544;52.018;5.810;2022-08-19T14:20:42;14.35;;;12.82;;
43883;SDS011;29544;52.018;5.810;2022-08-19T14:23:08;18.60;;;13.10;;
43883;SDS011;29544;52.018;5.810;2022-08-19T14:25:33;14.90;;;13.07;;
43883;SDS011;29544;52.018;5.810;2022-08-19T14:28:00;17.75;;;13.35;;
43883;SDS011;29544;52.018;5.810;2022-08-19T14:30:35;19.25;;;15.05;;
43883;SDS011;29544;52.018;5.810;2022-08-19T14:35:29;17.65;;;12.50;;
43883;SDS011;29544;52.018;5.810;2022-08-19T14:37:59;23.50;;;14.52;;
43883;SDS011;29544;52.018;5.810;2022-08-19T14:40:26;15.70;;;13.38;;
43883;SDS011;29544;52.018;5.810;2022-08-19T14:42:54;16.77;;;11.90;;
43883;SDS011;29544;52.018;5.810;2022-08-19T14:45:29;18.38;;;11.73;;
43883;SDS011;29544;52.018;5.810;2022-08-19T14:48:00;15.63;;;10.73;;
43883;SDS011;29544;52.018;5.810;2022-08-19T14:50:26;17.40;;;9.45;;
43883;SDS011;29544;52.018;5.810;2022-08-19T14:52:57;14.45;;;9.38;;
43883;SDS011;29544;52.018;5.810;2022-08-19T14:57:55;11.25;;;7.05;;
43883;SDS011;29544;52.018;5.810;2022-08-19T15:00:21;8.88;;;6.97;;
43883;SDS011;29544;52.018;5.810;2022-08-19T15:02:48;7.75;;;6.55;;
43883;SDS011;29544;52.018;5.810;2022-08-19T15:05:14;7.78;;;6.57;;
43883;SDS011;29544;52.018;5.810;2022-08-19T15:07:40;7.13;;;5.85;;
43883;SDS011;29544;52.018;5.810;2022-08-19T15:10:06;14.40;;;6.40;;
43883;SDS011;29544;52.018;5.810;2022-08-19T15:12:33;9.77;;;5.85;;
43883;SDS011;29544;52.018;5.810;2022-08-19T15:14:59;10.02;;;6.35;;
43883;SDS011;29544;52.018;5.810;2022-08-19T15:17:25;8.32;;;6.63;;
43883;SDS011;29544;52.018;5.810;2022-08-19T15:19:51;9.20;;;5.70;;
43883;SDS011;29544;52.018;5.810;2022-08-19T15:22:17;10.32;;;6.32;;
43883;SDS011;29544;52.018;5.810;2022-08-19T15:24:42;8.00;;;5.22;;
43883;SDS011;29544;52.018;5.810;2022-08-19T15:27:11;7.70;;;5.68;;
43883;SDS011;29544;52.018;5.810;2022-08-19T15:29:37;7.72;;;5.68;;
43883;SDS011;29544;52.018;5.810;2022-08-19T15:32:03;10.05;;;5.75;;
43883;SDS011;29544;52.018;5.810;2022-08-19T15:34:31;6.95;;;5.65;;
43883;SDS011;29544;52.018;5.810;2022-08-19T15:36:57;7.65;;;6.15;;
43883;SDS011;29544;52.018;5.810;2022-08-19T15:39:24;6.95;;;4.95;;
43883;SDS011;29544;52.018;5.810;2022-08-19T15:41:49;5.70;;;4.55;;